Airfield :
LOGIN :

Register | Disclaimer

   EN    FR    IT 

 










Legend :    VFR   Marginal VFR   IFR   Intensive IFR   Very Intensive IFR
Visi :
Ceiling :
>= 8 km
>= 3000ft
5 to 8 km
1000 to 3000 ft
1500m to 5 km
500 to 1000 ft
800 to 1500m
200 to 500 ft
< 800m
< 200 ft
Symbols :   Thunderstorms  Fog  Heavy snow  Heavy precipitations  Wind > 20 kt
SIGMETs :     Misc.  Thunderstorms  Icing  Turbulence  Mountain Waves  Volcanic Ashes







- Airport Elevation : 19 ft
- IATA code : LCY
- Download approach charts


EGLC - London City

CURRENT METAR :
  • 160550Z AUTO 15004KT 110V190 5000 HZ OVC005 15/14 Q1015

EXPIRED METARs :
  • 160520Z AUTO 14004KT 5000 HZ BKN006 OVC009 15/14 Q1015
  • 160450Z AUTO 13004KT 4700 HZ OVC006 15/14 Q1015
  • 160420Z AUTO 13004KT 100V160 4600 BR OVC006 15/15 Q1015
  • 160350Z AUTO 12005KT 080V150 3500 BR BKN004 OVC007 15/15 Q1014

TAF TAF EGLC
Valid from the 16 at 06:00 until the 16 at 15:00 UTC


160503Z 1606/1615 13005KT 5000 BR BKN006
TEMPO 1606/1608 BKN003
PROB30
TEMPO 1606/1608 1000 BKN001
BECMG 1608/1611 21010KT 9999 NSW SCT025
ATIS : +44 20 7646 0224
No reported NOTAMs for that airfield.



MET'MAP, your aeronautical weather chart ! - Copyright ORBIFLY December 2007 - Disclaimer

ORBIFLY MET'MAP TEAM :

Programming & Development : Alexandra Zaïnal
Concept & Development : Baudouin d'Aumeries
Co-Development & Prog : Marc-Olivier Méhu
Technical & hardware support : Manuel Goepfert

Contact : metmap@orbifly.com




SOURCES & CREDITS :

   NOAA